sensor_id;sensor_type;location;lat;lon;timestamp;P1;durP1;ratioP1;P2;durP2;ratioP2
62332;SDS011;48624;49.812;8.562;2023-03-13T00:01:18;350.30;;;332.63;;
62332;SDS011;48624;49.812;8.562;2023-03-13T00:03:55;174.73;;;167.88;;
62332;SDS011;48624;49.812;8.562;2023-03-13T00:06:21;166.63;;;160.48;;
62332;SDS011;48624;49.812;8.562;2023-03-13T00:08:49;295.48;;;282.58;;
62332;SDS011;48624;49.812;8.562;2023-03-13T00:11:14;341.40;;;326.08;;
62332;SDS011;48624;49.812;8.562;2023-03-13T00:13:40;225.23;;;216.77;;
62332;SDS011;48624;49.812;8.562;2023-03-13T00:16:09;373.73;;;351.05;;
62332;SDS011;48624;49.812;8.562;2023-03-13T00:18:36;329.67;;;313.10;;
62332;SDS011;48624;49.812;8.562;2023-03-13T00:21:03;287.20;;;272.60;;
62332;SDS011;48624;49.812;8.562;2023-03-13T00:23:33;207.75;;;199.85;;
62332;SDS011;48624;49.812;8.562;2023-03-13T00:26:00;244.25;;;233.13;;
62332;SDS011;48624;49.812;8.562;2023-03-13T00:28:28;195.43;;;187.02;;
62332;SDS011;48624;49.812;8.562;2023-03-13T00:33:35;283.35;;;272.02;;
62332;SDS011;48624;49.812;8.562;2023-03-13T00:36:02;269.60;;;258.20;;
62332;SDS011;48624;49.812;8.562;2023-03-13T00:38:35;266.80;;;255.05;;
62332;SDS011;48624;49.812;8.562;2023-03-13T00:43:27;299.63;;;284.98;;
62332;SDS011;48624;49.812;8.562;2023-03-13T00:45:53;353.58;;;337.58;;
62332;SDS011;48624;49.812;8.562;2023-03-13T00:48:18;255.82;;;245.57;;
62332;SDS011;48624;49.812;8.562;2023-03-13T00:50:43;180.75;;;173.43;;
62332;SDS011;48624;49.812;8.562;2023-03-13T00:53:10;199.40;;;191.50;;
62332;SDS011;48624;49.812;8.562;2023-03-13T00:55:35;171.10;;;163.60;;
62332;SDS011;48624;49.812;8.562;2023-03-13T00:58:01;216.35;;;208.32;;
62332;SDS011;48624;49.812;8.562;2023-03-13T01:00:26;196.38;;;187.80;;
62332;SDS011;48624;49.812;8.562;2023-03-13T01:02:52;338.70;;;324.90;;
62332;SDS011;48624;49.812;8.562;2023-03-13T01:05:17;279.83;;;269.00;;
62332;SDS011;48624;49.812;8.562;2023-03-13T01:07:42;210.95;;;203.32;;
62332;SDS011;48624;49.812;8.562;2023-03-13T01:10:08;284.55;;;273.92;;
62332;SDS011;48624;49.812;8.562;2023-03-13T01:12:33;407.88;;;386.05;;
62332;SDS011;48624;49.812;8.562;2023-03-13T01:14:59;419.88;;;398.88;;
62332;SDS011;48624;49.812;8.562;2023-03-13T01:17:24;334.40;;;319.50;;
62332;SDS011;48624;49.812;8.562;2023-03-13T01:19:49;327.33;;;313.00;;
62332;SDS011;48624;49.812;8.562;2023-03-13T01:22:15;456.75;;;421.83;;
62332;SDS011;48624;49.812;8.562;2023-03-13T01:24:40;490.48;;;459.42;;
62332;SDS011;48624;49.812;8.562;2023-03-13T01:27:05;376.08;;;354.92;;
62332;SDS011;48624;49.812;8.562;2023-03-13T01:29:30;152.75;;;147.15;;
62332;SDS011;48624;49.812;8.562;2023-03-13T01:31:56;246.95;;;236.32;;
62332;SDS011;48624;49.812;8.562;2023-03-13T01:34:21;338.25;;;322.55;;
62332;SDS011;48624;49.812;8.562;2023-03-13T01:36:46;155.48;;;149.70;;
62332;SDS011;48624;49.812;8.562;2023-03-13T01:39:16;423.30;;;396.92;;
62332;SDS011;48624;49.812;8.562;2023-03-13T01:41:41;154.40;;;148.60;;
62332;SDS011;48624;49.812;8.562;2023-03-13T01:44:23;232.32;;;222.88;;
62332;SDS011;48624;49.812;8.562;2023-03-13T01:46:50;427.00;;;396.08;;
62332;SDS011;48624;49.812;8.562;2023-03-13T01:49:28;136.80;;;131.48;;
62332;SDS011;48624;49.812;8.562;2023-03-13T01:52:03;186.27;;;178.40;;
62332;SDS011;48624;49.812;8.562;2023-03-13T01:54:39;496.25;;;467.45;;
62332;SDS011;48624;49.812;8.562;2023-03-13T01:57:16;113.93;;;109.22;;
62332;SDS011;48624;49.812;8.562;2023-03-13T02:00:02;225.60;;;216.32;;
62332;SDS011;48624;49.812;8.562;2023-03-13T02:02:31;199.23;;;191.15;;
62332;SDS011;48624;49.812;8.562;2023-03-13T02:04:58;339.67;;;323.75;;
62332;SDS011;48624;49.812;8.562;2023-03-13T02:07:27;187.32;;;179.80;;
62332;SDS011;48624;49.812;8.562;2023-03-13T02:09:57;531.92;;;499.40;;
62332;SDS011;48624;49.812;8.562;2023-03-13T02:14:59;638.22;;;592.13;;
62332;SDS011;48624;49.812;8.562;2023-03-13T02:17:28;542.58;;;498.80;;
62332;SDS011;48624;49.812;8.562;2023-03-13T02:19:54;197.70;;;189.98;;
62332;SDS011;48624;49.812;8.562;2023-03-13T02:24:57;321.15;;;303.20;;
62332;SDS011;48624;49.812;8.562;2023-03-13T02:27:30;195.68;;;186.80;;
62332;SDS011;48624;49.812;8.562;2023-03-13T02:29:56;164.38;;;158.50;;
62332;SDS011;48624;49.812;8.562;2023-03-13T02:32:23;647.08;;;592.67;;
62332;SDS011;48624;49.812;8.562;2023-03-13T02:34:51;221.43;;;213.55;;
62332;SDS011;48624;49.812;8.562;2023-03-13T02:37:20;321.40;;;306.88;;
62332;SDS011;48624;49.812;8.562;2023-03-13T02:39:47;416.90;;;385.63;;
62332;SDS011;48624;49.812;8.562;2023-03-13T02:42:15;415.27;;;390.80;;
62332;SDS011;48624;49.812;8.562;2023-03-13T02:44:44;545.70;;;510.70;;
62332;SDS011;48624;49.812;8.562;2023-03-13T02:47:10;492.60;;;467.95;;
62332;SDS011;48624;49.812;8.562;2023-03-13T02:49:37;282.55;;;271.80;;
62332;SDS011;48624;49.812;8.562;2023-03-13T02:52:10;457.50;;;435.05;;
62332;SDS011;48624;49.812;8.562;2023-03-13T02:54:39;348.00;;;334.00;;
62332;SDS011;48624;49.812;8.562;2023-03-13T02:57:05;654.50;;;611.13;;
62332;SDS011;48624;49.812;8.562;2023-03-13T02:59:30;660.17;;;615.15;;
62332;SDS011;48624;49.812;8.562;2023-03-13T03:01:56;592.88;;;552.17;;
62332;SDS011;48624;49.812;8.562;2023-03-13T03:04:22;512.80;;;483.58;;
62332;SDS011;48624;49.812;8.562;2023-03-13T03:06:49;305.80;;;293.58;;
62332;SDS011;48624;49.812;8.562;2023-03-13T03:09:15;438.58;;;413.20;;
62332;SDS011;48624;49.812;8.562;2023-03-13T03:11:41;649.22;;;591.05;;
62332;SDS011;48624;49.812;8.562;2023-03-13T03:14:07;327.50;;;312.63;;
62332;SDS011;48624;49.812;8.562;2023-03-13T03:16:33;434.15;;;412.73;;
62332;SDS011;48624;49.812;8.562;2023-03-13T03:18:58;539.83;;;509.80;;
62332;SDS011;48624;49.812;8.562;2023-03-13T03:21:24;477.15;;;449.13;;
62332;SDS011;48624;49.812;8.562;2023-03-13T03:23:49;392.52;;;375.63;;
62332;SDS011;48624;49.812;8.562;2023-03-13T03:26:15;357.95;;;339.27;;
62332;SDS011;48624;49.812;8.562;2023-03-13T03:28:41;434.48;;;413.38;;
62332;SDS011;48624;49.812;8.562;2023-03-13T03:31:07;510.05;;;480.52;;
62332;SDS011;48624;49.812;8.562;2023-03-13T03:33:34;398.05;;;379.60;;
62332;SDS011;48624;49.812;8.562;2023-03-13T03:36:01;466.27;;;441.20;;
62332;SDS011;48624;49.812;8.562;2023-03-13T03:38:27;360.70;;;343.77;;
62332;SDS011;48624;49.812;8.562;2023-03-13T03:40:52;325.80;;;313.38;;
62332;SDS011;48624;49.812;8.562;2023-03-13T03:43:18;493.38;;;469.20;;
62332;SDS011;48624;49.812;8.562;2023-03-13T03:45:43;367.95;;;353.25;;
62332;SDS011;48624;49.812;8.562;2023-03-13T03:48:09;399.58;;;383.70;;
62332;SDS011;48624;49.812;8.562;2023-03-13T03:50:34;736.42;;;681.35;;
62332;SDS011;48624;49.812;8.562;2023-03-13T03:52:59;604.80;;;571.85;;
62332;SDS011;48624;49.812;8.562;2023-03-13T03:55:25;500.60;;;474.98;;
62332;SDS011;48624;49.812;8.562;2023-03-13T03:57:50;499.75;;;476.63;;
62332;SDS011;48624;49.812;8.562;2023-03-13T04:00:16;455.13;;;435.65;;
62332;SDS011;48624;49.812;8.562;2023-03-13T04:02:43;640.20;;;602.55;;
62332;SDS011;48624;49.812;8.562;2023-03-13T04:05:08;545.13;;;513.83;;
62332;SDS011;48624;49.812;8.562;2023-03-13T04:07:34;516.17;;;491.75;;
62332;SDS011;48624;49.812;8.562;2023-03-13T04:09:59;758.13;;;703.20;;
62332;SDS011;48624;49.812;8.562;2023-03-13T04:12:24;534.55;;;506.35;;
62332;SDS011;48624;49.812;8.562;2023-03-13T04:14:50;928.72;;;798.25;;
62332;SDS011;48624;49.812;8.562;2023-03-13T04:17:15;594.58;;;562.50;;
62332;SDS011;48624;49.812;8.562;2023-03-13T04:19:41;596.17;;;560.83;;
62332;SDS011;48624;49.812;8.562;2023-03-13T04:22:06;607.72;;;576.42;;
62332;SDS011;48624;49.812;8.562;2023-03-13T04:24:31;539.90;;;509.25;;
62332;SDS011;48624;49.812;8.562;2023-03-13T04:26:57;452.65;;;434.65;;
62332;SDS011;48624;49.812;8.562;2023-03-13T04:29:23;616.35;;;577.55;;
62332;SDS011;48624;49.812;8.562;2023-03-13T04:31:48;702.63;;;655.03;;
62332;SDS011;48624;49.812;8.562;2023-03-13T04:34:14;857.28;;;787.95;;
62332;SDS011;48624;49.812;8.562;2023-03-13T04:36:39;622.65;;;585.28;;
62332;SDS011;48624;49.812;8.562;2023-03-13T04:39:04;530.65;;;503.98;;
62332;SDS011;48624;49.812;8.562;2023-03-13T04:41:29;671.33;;;618.83;;
62332;SDS011;48624;49.812;8.562;2023-03-13T04:43:55;787.00;;;728.88;;
62332;SDS011;48624;49.812;8.562;2023-03-13T04:46:20;510.48;;;487.75;;
62332;SDS011;48624;49.812;8.562;2023-03-13T04:48:45;465.45;;;432.95;;
62332;SDS011;48624;49.812;8.562;2023-03-13T04:51:11;542.10;;;515.55;;
62332;SDS011;48624;49.812;8.562;2023-03-13T04:53:36;760.17;;;711.67;;
62332;SDS011;48624;49.812;8.562;2023-03-13T04:56:02;587.17;;;556.47;;
62332;SDS011;48624;49.812;8.562;2023-03-13T04:58:27;461.27;;;441.92;;
62332;SDS011;48624;49.812;8.562;2023-03-13T05:00:53;755.60;;;693.47;;
62332;SDS011;48624;49.812;8.562;2023-03-13T05:03:18;605.20;;;557.00;;
62332;SDS011;48624;49.812;8.562;2023-03-13T05:05:44;634.80;;;589.33;;
62332;SDS011;48624;49.812;8.562;2023-03-13T05:08:09;413.92;;;398.45;;
62332;SDS011;48624;49.812;8.562;2023-03-13T05:10:38;448.13;;;427.85;;
62332;SDS011;48624;49.812;8.562;2023-03-13T05:13:05;413.15;;;393.30;;
62332;SDS011;48624;49.812;8.562;2023-03-13T05:15:30;439.95;;;422.25;;
62332;SDS011;48624;49.812;8.562;2023-03-13T05:17:56;420.88;;;404.15;;
62332;SDS011;48624;49.812;8.562;2023-03-13T05:20:21;572.50;;;543.63;;
62332;SDS011;48624;49.812;8.562;2023-03-13T05:22:46;392.13;;;377.92;;
62332;SDS011;48624;49.812;8.562;2023-03-13T05:25:11;616.42;;;581.80;;
62332;SDS011;48624;49.812;8.562;2023-03-13T05:27:37;400.25;;;385.02;;
62332;SDS011;48624;49.812;8.562;2023-03-13T05:30:02;540.95;;;513.05;;
62332;SDS011;48624;49.812;8.562;2023-03-13T05:32:28;676.97;;;637.97;;
62332;SDS011;48624;49.812;8.562;2023-03-13T05:34:53;457.27;;;438.77;;
62332;SDS011;48624;49.812;8.562;2023-03-13T05:37:18;721.90;;;671.55;;
62332;SDS011;48624;49.812;8.562;2023-03-13T05:39:43;726.05;;;674.97;;
62332;SDS011;48624;49.812;8.562;2023-03-13T05:42:09;674.38;;;635.15;;
62332;SDS011;48624;49.812;8.562;2023-03-13T05:44:34;686.90;;;645.05;;
62332;SDS011;48624;49.812;8.562;2023-03-13T05:46:59;670.13;;;618.78;;
62332;SDS011;48624;49.812;8.562;2023-03-13T05:49:24;713.10;;;660.85;;
62332;SDS011;48624;49.812;8.562;2023-03-13T05:51:50;486.52;;;459.55;;
62332;SDS011;48624;49.812;8.562;2023-03-13T05:54:15;664.47;;;622.95;;
62332;SDS011;48624;49.812;8.562;2023-03-13T05:56:40;548.35;;;519.95;;
62332;SDS011;48624;49.812;8.562;2023-03-13T05:59:05;815.13;;;752.83;;
62332;SDS011;48624;49.812;8.562;2023-03-13T06:01:31;556.88;;;529.38;;
62332;SDS011;48624;49.812;8.562;2023-03-13T06:03:56;649.60;;;611.63;;
62332;SDS011;48624;49.812;8.562;2023-03-13T06:06:22;631.47;;;588.38;;
62332;SDS011;48624;49.812;8.562;2023-03-13T06:08:47;655.00;;;614.58;;
62332;SDS011;48624;49.812;8.562;2023-03-13T06:11:12;634.50;;;598.88;;
62332;SDS011;48624;49.812;8.562;2023-03-13T06:13:37;616.92;;;583.05;;
62332;SDS011;48624;49.812;8.562;2023-03-13T06:16:04;759.13;;;706.95;;
62332;SDS011;48624;49.812;8.562;2023-03-13T06:18:30;534.03;;;508.48;;
62332;SDS011;48624;49.812;8.562;2023-03-13T06:20:56;483.45;;;460.88;;
62332;SDS011;48624;49.812;8.562;2023-03-13T06:23:23;512.83;;;489.42;;
62332;SDS011;48624;49.812;8.562;2023-03-13T06:25:49;432.98;;;416.75;;
62332;SDS011;48624;49.812;8.562;2023-03-13T06:28:15;776.67;;;721.97;;
62332;SDS011;48624;49.812;8.562;2023-03-13T06:30:41;516.22;;;491.38;;
62332;SDS011;48624;49.812;8.562;2023-03-13T06:33:06;504.85;;;476.90;;
62332;SDS011;48624;49.812;8.562;2023-03-13T06:35:32;609.47;;;577.10;;
62332;SDS011;48624;49.812;8.562;2023-03-13T06:37:57;822.72;;;764.33;;
62332;SDS011;48624;49.812;8.562;2023-03-13T06:40:22;573.20;;;542.42;;
62332;SDS011;48624;49.812;8.562;2023-03-13T06:42:47;591.88;;;560.78;;
62332;SDS011;48624;49.812;8.562;2023-03-13T06:45:13;698.72;;;638.30;;
62332;SDS011;48624;49.812;8.562;2023-03-13T06:47:38;640.55;;;597.40;;
62332;SDS011;48624;49.812;8.562;2023-03-13T06:50:05;506.67;;;481.75;;
62332;SDS011;48624;49.812;8.562;2023-03-13T06:52:30;783.80;;;730.45;;
62332;SDS011;48624;49.812;8.562;2023-03-13T06:54:56;680.42;;;636.70;;
62332;SDS011;48624;49.812;8.562;2023-03-13T06:57:21;566.28;;;538.55;;
62332;SDS011;48624;49.812;8.562;2023-03-13T06:59:46;694.83;;;648.83;;
62332;SDS011;48624;49.812;8.562;2023-03-13T07:02:12;762.85;;;709.65;;
62332;SDS011;48624;49.812;8.562;2023-03-13T07:04:37;776.00;;;719.55;;
62332;SDS011;48624;49.812;8.562;2023-03-13T07:07:03;656.10;;;614.88;;
62332;SDS011;48624;49.812;8.562;2023-03-13T07:09:29;570.75;;;537.80;;
62332;SDS011;48624;49.812;8.562;2023-03-13T07:11:54;752.88;;;702.50;;
62332;SDS011;48624;49.812;8.562;2023-03-13T07:14:21;473.48;;;453.98;;
62332;SDS011;48624;49.812;8.562;2023-03-13T07:16:47;380.77;;;367.10;;
62332;SDS011;48624;49.812;8.562;2023-03-13T07:19:12;417.50;;;401.92;;
62332;SDS011;48624;49.812;8.562;2023-03-13T07:21:39;468.23;;;449.92;;
62332;SDS011;48624;49.812;8.562;2023-03-13T07:24:04;633.53;;;595.40;;
62332;SDS011;48624;49.812;8.562;2023-03-13T07:26:30;376.40;;;362.65;;
62332;SDS011;48624;49.812;8.562;2023-03-13T07:28:55;470.85;;;451.50;;
62332;SDS011;48624;49.812;8.562;2023-03-13T07:31:21;405.45;;;390.35;;
62332;SDS011;48624;49.812;8.562;2023-03-13T07:33:48;480.33;;;460.27;;
62332;SDS011;48624;49.812;8.562;2023-03-13T07:36:17;442.23;;;425.17;;
62332;SDS011;48624;49.812;8.562;2023-03-13T07:38:42;412.73;;;397.60;;
62332;SDS011;48624;49.812;8.562;2023-03-13T07:41:11;510.20;;;487.17;;
62332;SDS011;48624;49.812;8.562;2023-03-13T07:43:40;427.70;;;411.20;;
62332;SDS011;48624;49.812;8.562;2023-03-13T07:46:06;442.52;;;425.65;;
62332;SDS011;48624;49.812;8.562;2023-03-13T07:48:36;410.38;;;395.23;;
62332;SDS011;48624;49.812;8.562;2023-03-13T07:51:05;741.22;;;684.92;;
62332;SDS011;48624;49.812;8.562;2023-03-13T07:53:32;472.00;;;453.05;;
62332;SDS011;48624;49.812;8.562;2023-03-13T07:55:58;636.92;;;601.45;;
62332;SDS011;48624;49.812;8.562;2023-03-13T07:58:26;424.45;;;408.85;;
62332;SDS011;48624;49.812;8.562;2023-03-13T08:00:56;471.30;;;451.50;;
62332;SDS011;48624;49.812;8.562;2023-03-13T08:03:22;423.13;;;407.92;;
62332;SDS011;48624;49.812;8.562;2023-03-13T08:06:02;437.98;;;421.02;;
62332;SDS011;48624;49.812;8.562;2023-03-13T08:08:29;408.80;;;392.92;;
62332;SDS011;48624;49.812;8.562;2023-03-13T08:11:01;516.85;;;492.25;;
62332;SDS011;48624;49.812;8.562;2023-03-13T08:13:32;552.28;;;524.88;;
62332;SDS011;48624;49.812;8.562;2023-03-13T08:18:55;778.95;;;709.33;;
62332;SDS011;48624;49.812;8.562;2023-03-13T08:21:26;572.60;;;543.75;;
62332;SDS011;48624;49.812;8.562;2023-03-13T08:23:53;571.00;;;540.85;;
62332;SDS011;48624;49.812;8.562;2023-03-13T08:26:25;459.48;;;441.00;;
62332;SDS011;48624;49.812;8.562;2023-03-13T08:28:52;596.72;;;554.08;;
62332;SDS011;48624;49.812;8.562;2023-03-13T08:31:23;607.47;;;557.35;;
62332;SDS011;48624;49.812;8.562;2023-03-13T08:33:53;640.88;;;598.58;;
62332;SDS011;48624;49.812;8.562;2023-03-13T08:36:19;930.88;;;849.67;;
62332;SDS011;48624;49.812;8.562;2023-03-13T08:38:49;525.22;;;502.42;;
62332;SDS011;48624;49.812;8.562;2023-03-13T08:41:20;528.42;;;502.60;;
62332;SDS011;48624;49.812;8.562;2023-03-13T08:43:47;603.25;;;565.80;;
62332;SDS011;48624;49.812;8.562;2023-03-13T08:46:12;604.03;;;572.70;;
62332;SDS011;48624;49.812;8.562;2023-03-13T08:48:39;562.97;;;535.20;;
62332;SDS011;48624;49.812;8.562;2023-03-13T08:51:05;702.53;;;656.15;;
62332;SDS011;48624;49.812;8.562;2023-03-13T08:53:32;574.97;;;544.90;;
62332;SDS011;48624;49.812;8.562;2023-03-13T08:55:59;486.80;;;463.60;;
62332;SDS011;48624;49.812;8.562;2023-03-13T08:58:24;606.80;;;572.17;;
62332;SDS011;48624;49.812;8.562;2023-03-13T09:00:50;525.53;;;491.58;;
62332;SDS011;48624;49.812;8.562;2023-03-13T09:03:15;483.25;;;462.23;;
62332;SDS011;48624;49.812;8.562;2023-03-13T09:05:41;523.47;;;500.40;;
62332;SDS011;48624;49.812;8.562;2023-03-13T09:08:07;534.35;;;508.45;;
62332;SDS011;48624;49.812;8.562;2023-03-13T09:10:32;482.23;;;454.40;;
62332;SDS011;48624;49.812;8.562;2023-03-13T09:12:58;458.33;;;440.20;;
62332;SDS011;48624;49.812;8.562;2023-03-13T09:15:23;334.25;;;316.80;;
62332;SDS011;48624;49.812;8.562;2023-03-13T09:17:48;503.30;;;480.42;;
62332;SDS011;48624;49.812;8.562;2023-03-13T09:20:14;490.08;;;468.13;;
62332;SDS011;48624;49.812;8.562;2023-03-13T09:22:39;504.67;;;481.92;;
62332;SDS011;48624;49.812;8.562;2023-03-13T09:25:04;485.05;;;465.60;;
62332;SDS011;48624;49.812;8.562;2023-03-13T09:27:30;489.52;;;461.00;;
62332;SDS011;48624;49.812;8.562;2023-03-13T09:29:55;467.35;;;444.88;;
62332;SDS011;48624;49.812;8.562;2023-03-13T09:32:21;588.78;;;555.72;;
62332;SDS011;48624;49.812;8.562;2023-03-13T09:34:46;667.50;;;631.97;;
62332;SDS011;48624;49.812;8.562;2023-03-13T09:37:11;508.25;;;487.30;;
62332;SDS011;48624;49.812;8.562;2023-03-13T09:39:37;620.30;;;583.42;;
62332;SDS011;48624;49.812;8.562;2023-03-13T09:44:54;530.35;;;507.90;;
62332;SDS011;48624;49.812;8.562;2023-03-13T09:47:32;566.45;;;538.50;;
62332;SDS011;48624;49.812;8.562;2023-03-13T09:50:11;476.90;;;456.05;;
62332;SDS011;48624;49.812;8.562;2023-03-13T09:52:40;580.13;;;550.45;;
62332;SDS011;48624;49.812;8.562;2023-03-13T09:55:16;720.17;;;665.22;;
62332;SDS011;48624;49.812;8.562;2023-03-13T09:57:55;636.95;;;597.20;;
62332;SDS011;48624;49.812;8.562;2023-03-13T10:00:36;688.65;;;633.92;;
62332;SDS011;48624;49.812;8.562;2023-03-13T10:03:11;554.45;;;530.20;;
62332;SDS011;48624;49.812;8.562;2023-03-13T10:08:39;518.35;;;485.42;;
62332;SDS011;48624;49.812;8.562;2023-03-13T10:11:14;658.75;;;623.25;;
62332;SDS011;48624;49.812;8.562;2023-03-13T10:13:57;509.92;;;489.15;;
62332;SDS011;48624;49.812;8.562;2023-03-13T10:19:10;571.28;;;539.90;;
62332;SDS011;48624;49.812;8.562;2023-03-13T10:21:39;406.20;;;390.48;;
62332;SDS011;48624;49.812;8.562;2023-03-13T10:24:15;434.10;;;417.40;;
62332;SDS011;48624;49.812;8.562;2023-03-13T10:26:47;607.28;;;572.55;;
62332;SDS011;48624;49.812;8.562;2023-03-13T10:29:19;493.92;;;473.17;;
62332;SDS011;48624;49.812;8.562;2023-03-13T10:31:49;531.30;;;507.85;;
62332;SDS011;48624;49.812;8.562;2023-03-13T10:34:21;514.63;;;491.30;;
62332;SDS011;48624;49.812;8.562;2023-03-13T10:36:48;527.20;;;503.98;;
62332;SDS011;48624;49.812;8.562;2023-03-13T10:39:15;481.92;;;461.30;;
62332;SDS011;48624;49.812;8.562;2023-03-13T10:41:43;484.58;;;465.00;;
62332;SDS011;48624;49.812;8.562;2023-03-13T10:44:15;554.88;;;528.50;;
62332;SDS011;48624;49.812;8.562;2023-03-13T10:46:42;596.47;;;567.15;;
62332;SDS011;48624;49.812;8.562;2023-03-13T10:49:14;517.42;;;495.65;;
62332;SDS011;48624;49.812;8.562;2023-03-13T10:56:50;574.00;;;542.70;;
62332;SDS011;48624;49.812;8.562;2023-03-13T10:59:21;492.38;;;472.30;;
62332;SDS011;48624;49.812;8.562;2023-03-13T11:01:49;540.20;;;515.45;;
62332;SDS011;48624;49.812;8.562;2023-03-13T11:04:29;438.80;;;421.40;;
62332;SDS011;48624;49.812;8.562;2023-03-13T11:07:03;597.13;;;560.45;;
62332;SDS011;48624;49.812;8.562;2023-03-13T11:09:39;592.13;;;561.88;;
62332;SDS011;48624;49.812;8.562;2023-03-13T11:12:13;663.28;;;619.00;;
62332;SDS011;48624;49.812;8.562;2023-03-13T11:14:43;536.47;;;510.98;;
62332;SDS011;48624;49.812;8.562;2023-03-13T11:25:17;519.30;;;491.52;;
62332;SDS011;48624;49.812;8.562;2023-03-13T11:33:23;445.00;;;426.95;;
62332;SDS011;48624;49.812;8.562;2023-03-13T11:36:07;412.90;;;396.20;;
62332;SDS011;48624;49.812;8.562;2023-03-13T11:38:45;409.05;;;392.52;;
62332;SDS011;48624;49.812;8.562;2023-03-13T11:41:30;429.63;;;409.80;;
62332;SDS011;48624;49.812;8.562;2023-03-13T11:52:29;695.60;;;648.30;;
62332;SDS011;48624;49.812;8.562;2023-03-13T11:55:23;707.92;;;658.92;;
62332;SDS011;48624;49.812;8.562;2023-03-13T12:00:24;462.65;;;443.08;;
62332;SDS011;48624;49.812;8.562;2023-03-13T12:03:05;432.50;;;414.35;;
62332;SDS011;48624;49.812;8.562;2023-03-13T12:05:51;466.25;;;446.65;;
62332;SDS011;48624;49.812;8.562;2023-03-13T12:13:56;777.63;;;690.85;;
62332;SDS011;48624;49.812;8.562;2023-03-13T12:16:36;771.60;;;707.92;;
62332;SDS011;48624;49.812;8.562;2023-03-13T12:19:10;567.25;;;534.35;;
62332;SDS011;48624;49.812;8.562;2023-03-13T12:21:49;596.15;;;560.40;;
62332;SDS011;48624;49.812;8.562;2023-03-13T12:26:59;538.33;;;510.23;;
62332;SDS011;48624;49.812;8.562;2023-03-13T12:29:42;464.52;;;443.90;;
62332;SDS011;48624;49.812;8.562;2023-03-13T12:32:17;520.80;;;496.20;;
62332;SDS011;48624;49.812;8.562;2023-03-13T12:34:50;481.13;;;453.75;;
62332;SDS011;48624;49.812;8.562;2023-03-13T12:40:22;295.08;;;283.95;;
62332;SDS011;48624;49.812;8.562;2023-03-13T12:43:03;211.45;;;204.35;;
62332;SDS011;48624;49.812;8.562;2023-03-13T12:45:35;329.83;;;314.83;;
62332;SDS011;48624;49.812;8.562;2023-03-13T12:50:58;392.50;;;376.15;;
62332;SDS011;48624;49.812;8.562;2023-03-13T12:59:19;344.73;;;330.30;;
62332;SDS011;48624;49.812;8.562;2023-03-13T13:01:49;298.42;;;287.13;;
62332;SDS011;48624;49.812;8.562;2023-03-13T13:04:31;293.00;;;281.73;;
62332;SDS011;48624;49.812;8.562;2023-03-13T13:09:34;374.77;;;360.40;;
62332;SDS011;48624;49.812;8.562;2023-03-13T13:12:02;301.45;;;290.80;;
62332;SDS011;48624;49.812;8.562;2023-03-13T13:25:24;441.90;;;424.67;;
62332;SDS011;48624;49.812;8.562;2023-03-13T13:27:51;451.60;;;426.70;;
62332;SDS011;48624;49.812;8.562;2023-03-13T13:43:46;117.50;;;113.03;;
62332;SDS011;48624;49.812;8.562;2023-03-13T13:46:23;103.10;;;99.35;;
62332;SDS011;48624;49.812;8.562;2023-03-13T13:51:38;105.45;;;100.95;;
62332;SDS011;48624;49.812;8.562;2023-03-13T14:01:46;166.45;;;160.70;;
62332;SDS011;48624;49.812;8.562;2023-03-13T14:04:15;239.60;;;231.50;;
62332;SDS011;48624;49.812;8.562;2023-03-13T14:06:49;333.67;;;320.80;;
62332;SDS011;48624;49.812;8.562;2023-03-13T14:09:23;257.10;;;248.20;;
62332;SDS011;48624;49.812;8.562;2023-03-13T14:11:57;312.95;;;301.52;;
62332;SDS011;48624;49.812;8.562;2023-03-13T14:14:22;286.00;;;276.20;;
62332;SDS011;48624;49.812;8.562;2023-03-13T14:16:49;237.68;;;229.52;;
62332;SDS011;48624;49.812;8.562;2023-03-13T14:19:26;284.38;;;273.85;;
62332;SDS011;48624;49.812;8.562;2023-03-13T14:21:59;252.13;;;243.57;;
62332;SDS011;48624;49.812;8.562;2023-03-13T14:24:26;200.35;;;193.48;;
62332;SDS011;48624;49.812;8.562;2023-03-13T14:26:52;290.65;;;280.42;;
62332;SDS011;48624;49.812;8.562;2023-03-13T14:29:18;275.83;;;266.20;;
62332;SDS011;48624;49.812;8.562;2023-03-13T14:31:50;283.77;;;273.90;;
62332;SDS011;48624;49.812;8.562;2023-03-13T14:34:23;245.98;;;237.15;;
62332;SDS011;48624;49.812;8.562;2023-03-13T14:36:59;262.70;;;253.35;;
62332;SDS011;48624;49.812;8.562;2023-03-13T14:41:54;195.82;;;188.93;;
62332;SDS011;48624;49.812;8.562;2023-03-13T14:44:26;229.35;;;220.10;;
62332;SDS011;48624;49.812;8.562;2023-03-13T14:46:55;260.50;;;247.27;;
62332;SDS011;48624;49.812;8.562;2023-03-13T14:49:25;123.95;;;119.38;;
62332;SDS011;48624;49.812;8.562;2023-03-13T14:52:04;265.75;;;255.20;;
62332;SDS011;48624;49.812;8.562;2023-03-13T14:54:50;170.02;;;163.93;;
62332;SDS011;48624;49.812;8.562;2023-03-13T14:57:20;229.02;;;221.13;;
62332;SDS011;48624;49.812;8.562;2023-03-13T14:59:48;243.25;;;233.30;;
62332;SDS011;48624;49.812;8.562;2023-03-13T15:02:15;187.73;;;181.45;;
62332;SDS011;48624;49.812;8.562;2023-03-13T15:04:55;250.23;;;241.27;;
62332;SDS011;48624;49.812;8.562;2023-03-13T15:13:45;329.55;;;315.48;;
62332;SDS011;48624;49.812;8.562;2023-03-13T15:15:55;270.00;;;259.75;;
62332;SDS011;48624;49.812;8.562;2023-03-13T15:18:22;169.65;;;163.93;;
62332;SDS011;48624;49.812;8.562;2023-03-13T15:20:56;251.60;;;243.02;;
62332;SDS011;48624;49.812;8.562;2023-03-13T15:23:22;229.75;;;221.73;;
62332;SDS011;48624;49.812;8.562;2023-03-13T15:25:48;197.48;;;190.68;;
62332;SDS011;48624;49.812;8.562;2023-03-13T15:30:43;140.23;;;135.63;;
62332;SDS011;48624;49.812;8.562;2023-03-13T15:33:12;154.88;;;149.65;;
62332;SDS011;48624;49.812;8.562;2023-03-13T15:35:42;173.65;;;167.85;;
62332;SDS011;48624;49.812;8.562;2023-03-13T15:38:10;287.15;;;277.20;;
62332;SDS011;48624;49.812;8.562;2023-03-13T15:40:37;435.80;;;418.20;;
62332;SDS011;48624;49.812;8.562;2023-03-13T15:43:03;1889.13;;;795.03;;
62332;SDS011;48624;49.812;8.562;2023-03-13T15:45:28;1993.82;;;930.60;;
62332;SDS011;48624;49.812;8.562;2023-03-13T15:47:54;734.60;;;678.58;;
62332;SDS011;48624;49.812;8.562;2023-03-13T15:50:19;488.63;;;468.17;;
62332;SDS011;48624;49.812;8.562;2023-03-13T15:52:46;416.63;;;399.17;;
62332;SDS011;48624;49.812;8.562;2023-03-13T15:55:12;449.02;;;429.77;;
62332;SDS011;48624;49.812;8.562;2023-03-13T15:57:40;468.60;;;448.88;;
62332;SDS011;48624;49.812;8.562;2023-03-13T16:00:26;483.20;;;459.02;;
62332;SDS011;48624;49.812;8.562;2023-03-13T16:02:51;409.42;;;394.10;;